Airfield :
LOGIN :

Register | Disclaimer

   EN    FR    IT 

 










Legend :    VFR   Marginal VFR   IFR   Intensive IFR   Very Intensive IFR
Visi :
Ceiling :
>= 8 km
>= 3000ft
5 to 8 km
1000 to 3000 ft
1500m to 5 km
500 to 1000 ft
800 to 1500m
200 to 500 ft
< 800m
< 200 ft
Symbols :   Thunderstorms  Fog  Heavy snow  Heavy precipitations  Wind > 20 kt
SIGMETs :     Misc.  Thunderstorms  Icing  Turbulence  Mountain Waves  Volcanic Ashes






- Airport Elevation : 622 ft
- IATA code : BRS


EGGD - Bristol Int.

CURRENT METAR :
  • 010520Z AUTO 08003KT 9999 NCD 00/M02 Q1026

EXPIRED METARs :
  • 010450Z AUTO 05005KT 9999 NCD M00/M02 Q1026
  • 010420Z AUTO 05005KT 9999 NCD 00/M02 Q1026
  • 010350Z AUTO 04004KT 9999 NCD 01/M02 Q1026
  • 010320Z AUTO 02003KT 9999 NCD 01/M02 Q1026
  • 010250Z AUTO 07004KT 9999 NCD 01/M02 Q1026

TAF TAF EGGD
Valid from the 01 at 06:00 until the 02 at 06:00 UTC


010501Z 0106/0206 32005KT 9999 SCT040
ATIS : +44 1275 473 666



MET'MAP, your aeronautical weather chart ! - Copyright ORBIFLY December 2007 - Disclaimer

ORBIFLY MET'MAP TEAM :

Programming & Development : Alexandra Zaïnal
Concept & original design : Baudouin d'Aumeries
Assistance for programming : Marc-Olivier Méhu
Technical & hardware support : Manuel Goepfert

Contact : metmap@orbifly.com




SOURCES & CREDITS :

   NOAA